Time;durP1;ratioP1;P1;durP2;ratioP2;P2;SDS_P1;SDS_P2;PMS_P1;PMS_P2;Temp;Humidity;BMP_temperature;BMP_pressure;BME280_temperature;BME280_humidity;BME280_pressure;Samples;Min_cycle;Max_cycle;Signal;HPM_P1;HPM_P2
2022/12/08 00:00:48;;;;;;;45.10;25.27;;;;;;;;;;4934373;29;20051;-58
2022/12/08 00:03:14;;;;;;;43.10;24.35;;;;;;;;;;4933967;29;20063;-58
2022/12/08 00:11:17;;;;;;;39.10;22.27;;;;;;;;;;4934502;29;20114;-58
2022/12/08 00:13:43;;;;;;;38.55;22.85;;;;;;;;;;4934010;29;20491;-60
2022/12/08 00:16:09;;;;;;;40.05;22.95;;;;;;;;;;4934004;29;20051;-58
2022/12/08 00:18:35;;;;;;;37.63;21.70;;;;;;;;;;4934201;29;20126;-64
2022/12/08 00:21:01;;;;;;;39.33;22.85;;;;;;;;;;4934134;29;20040;-58
2022/12/08 00:23:27;;;;;;;38.40;22.92;;;;;;;;;;4932825;29;20895;-62
2022/12/08 00:25:53;;;;;;;41.03;23.70;;;;;;;;;;4934233;29;20039;-64
2022/12/08 00:28:19;;;;;;;39.08;22.02;;;;;;;;;;4933844;29;20024;-61
2022/12/08 00:30:45;;;;;;;37.50;22.30;;;;;;;;;;4934033;29;20040;-63
2022/12/08 00:33:11;;;;;;;44.53;24.02;;;;;;;;;;4934021;29;20059;-58
2022/12/08 00:35:38;;;;;;;46.20;24.80;;;;;;;;;;4934040;29;20427;-58
2022/12/08 00:38:04;;;;;;;43.28;24.65;;;;;;;;;;4933924;29;20035;-60
2022/12/08 00:40:30;;;;;;;42.13;24.45;;;;;;;;;;4934020;29;20122;-59
2022/12/08 00:42:56;;;;;;;44.15;24.40;;;;;;;;;;4933867;29;20055;-65
2022/12/08 00:45:22;;;;;;;43.40;24.75;;;;;;;;;;4934077;29;20031;-60
2022/12/08 00:47:48;;;;;;;40.50;24.25;;;;;;;;;;4933746;29;20035;-64
2022/12/08 00:50:14;;;;;;;44.65;25.13;;;;;;;;;;4933775;29;20455;-60
2022/12/08 00:52:40;;;;;;;48.05;25.42;;;;;;;;;;4933663;29;20031;-58
2022/12/08 00:55:07;;;;;;;47.63;26.05;;;;;;;;;;4934044;29;20031;-63
2022/12/08 00:57:33;;;;;;;44.92;25.90;;;;;;;;;;4933285;29;20362;-59
2022/12/08 00:59:59;;;;;;;45.90;26.17;;;;;;;;;;4933443;29;20036;-59
2022/12/08 01:02:25;;;;;;;46.75;25.00;;;;;;;;;;4934750;29;20495;-61
2022/12/08 01:04:51;;;;;;;40.53;24.33;;;;;;;;;;4937333;29;20028;-64
2022/12/08 01:07:17;;;;;;;42.50;24.92;;;;;;;;;;4937138;29;20035;-58
2022/12/08 01:09:43;;;;;;;45.65;26.48;;;;;;;;;;4937080;29;20019;-58
2022/12/08 01:12:09;;;;;;;43.20;24.60;;;;;;;;;;4937110;29;20494;-58
2022/12/08 01:14:36;;;;;;;43.22;24.45;;;;;;;;;;4935976;29;20103;-58
2022/12/08 01:17:02;;;;;;;47.38;26.33;;;;;;;;;;4936816;29;20028;-62
2022/12/08 01:19:29;;;;;;;45.80;25.00;;;;;;;;;;4936840;29;20031;-58
2022/12/08 01:21:55;;;;;;;41.97;25.67;;;;;;;;;;4936961;29;20028;-58
2022/12/08 01:24:21;;;;;;;42.78;25.27;;;;;;;;;;4936561;29;20028;-65
2022/12/08 01:26:48;;;;;;;39.88;23.75;;;;;;;;;;4936828;29;20039;-59
2022/12/08 01:29:14;;;;;;;42.70;23.25;;;;;;;;;;4936648;29;20028;-67
2022/12/08 01:31:41;;;;;;;38.38;23.05;;;;;;;;;;4936858;29;20035;-65
2022/12/08 01:34:07;;;;;;;39.15;22.42;;;;;;;;;;4936459;29;20495;-57
2022/12/08 01:36:36;;;;;;;33.22;21.13;;;;;;;;;;4936299;29;20412;-59
2022/12/08 01:39:02;;;;;;;35.80;21.60;;;;;;;;;;4936607;29;20020;-59
2022/12/08 01:41:30;;;;;;;39.65;23.30;;;;;;;;;;4936202;29;20039;-60
2022/12/08 01:43:56;;;;;;;40.78;24.08;;;;;;;;;;4936820;29;20476;-59
2022/12/08 01:46:23;;;;;;;43.45;23.95;;;;;;;;;;4936359;29;20040;-63
2022/12/08 01:48:50;;;;;;;36.33;21.75;;;;;;;;;;4936132;29;20032;-58
2022/12/08 01:51:16;;;;;;;36.85;21.67;;;;;;;;;;4936326;29;20357;-58
2022/12/08 01:53:42;;;;;;;41.05;23.50;;;;;;;;;;4936293;29;20038;-63
2022/12/08 01:56:12;;;;;;;41.90;23.08;;;;;;;;;;4936559;29;20038;-59
2022/12/08 01:58:41;;;;;;;37.85;22.08;;;;;;;;;;4936226;29;20082;-59
2022/12/08 02:01:07;;;;;;;41.42;22.58;;;;;;;;;;4936256;29;20123;-59
2022/12/08 02:03:54;;;;;;;40.60;23.50;;;;;;;;;;4936624;29;20035;-59
2022/12/08 02:06:21;;;;;;;41.60;23.08;;;;;;;;;;4935199;29;20070;-58
2022/12/08 02:08:47;;;;;;;37.15;22.52;;;;;;;;;;4935394;29;20479;-59
2022/12/08 02:11:13;;;;;;;38.65;22.83;;;;;;;;;;4936151;29;20115;-57
2022/12/08 02:13:41;;;;;;;31.95;19.83;;;;;;;;;;4935283;29;20039;-58
2022/12/08 02:16:10;;;;;;;33.83;19.90;;;;;;;;;;4935801;29;20159;-59
2022/12/08 02:18:50;;;;;;;35.15;20.17;;;;;;;;;;4936180;29;20027;-63
2022/12/08 02:21:35;;;;;;;34.10;20.52;;;;;;;;;;4935882;29;20039;-61
2022/12/08 02:24:19;;;;;;;35.50;20.38;;;;;;;;;;4935866;29;20024;-59
2022/12/08 02:26:45;;;;;;;36.72;20.52;;;;;;;;;;4935792;29;20035;-61
2022/12/08 02:29:26;;;;;;;38.60;20.80;;;;;;;;;;4935899;29;20032;-57
2022/12/08 02:31:52;;;;;;;35.17;20.27;;;;;;;;;;4935925;29;20063;-61
2022/12/08 02:34:18;;;;;;;32.42;18.85;;;;;;;;;;4935728;29;20058;-57
2022/12/08 02:37:03;;;;;;;31.83;19.20;;;;;;;;;;4935617;29;20035;-58
2022/12/08 02:39:52;;;;;;;31.58;18.95;;;;;;;;;;4935374;29;20028;-58
2022/12/08 02:42:25;;;;;;;33.17;19.65;;;;;;;;;;4935731;29;20039;-58
2022/12/08 02:44:55;;;;;;;31.98;20.27;;;;;;;;;;4935854;29;20067;-64
2022/12/08 02:47:22;;;;;;;36.05;20.15;;;;;;;;;;4935363;29;20118;-63
2022/12/08 02:49:48;;;;;;;35.05;19.55;;;;;;;;;;4935581;29;20071;-57
2022/12/08 02:52:14;;;;;;;34.60;19.35;;;;;;;;;;4935456;29;20027;-60
2022/12/08 02:54:41;;;;;;;35.08;19.95;;;;;;;;;;4935349;29;20032;-59
2022/12/08 02:57:26;;;;;;;33.95;19.48;;;;;;;;;;4935101;29;20050;-59
2022/12/08 02:59:55;;;;;;;37.97;20.58;;;;;;;;;;4934900;29;20590;-58
2022/12/08 03:02:40;;;;;;;31.05;18.88;;;;;;;;;;4936873;29;20050;-57
2022/12/08 03:05:13;;;;;;;33.72;19.35;;;;;;;;;;4936275;29;20031;-58
2022/12/08 03:07:49;;;;;;;29.20;18.23;;;;;;;;;;4935103;29;20035;-58
2022/12/08 03:10:19;;;;;;;31.98;17.85;;;;;;;;;;4934897;29;20368;-57
2022/12/08 03:12:49;;;;;;;27.98;17.15;;;;;;;;;;4934676;29;20150;-58
2022/12/08 03:15:18;;;;;;;29.50;18.13;;;;;;;;;;4935130;29;20032;-57
2022/12/08 03:17:45;;;;;;;27.80;17.77;;;;;;;;;;4934908;29;20036;-58
2022/12/08 03:20:14;;;;;;;29.13;17.88;;;;;;;;;;4935133;29;20411;-58
2022/12/08 03:22:41;;;;;;;34.05;18.08;;;;;;;;;;4934604;29;20028;-62
2022/12/08 03:25:07;;;;;;;36.92;20.98;;;;;;;;;;4934557;29;20170;-63
2022/12/08 03:27:33;;;;;;;36.33;21.52;;;;;;;;;;4934923;29;20071;-58
2022/12/08 03:30:00;;;;;;;36.05;20.45;;;;;;;;;;4934863;29;20091;-57
2022/12/08 03:32:36;;;;;;;35.33;19.65;;;;;;;;;;4934688;29;20039;-65
2022/12/08 03:35:04;;;;;;;34.65;19.92;;;;;;;;;;4934774;29;20432;-58
2022/12/08 03:37:30;;;;;;;33.80;19.70;;;;;;;;;;4934361;29;20028;-57
2022/12/08 03:39:56;;;;;;;31.52;19.23;;;;;;;;;;4934228;29;20127;-58
2022/12/08 03:42:23;;;;;;;37.35;20.40;;;;;;;;;;4934503;29;20024;-59
2022/12/08 03:44:49;;;;;;;33.20;18.95;;;;;;;;;;4934511;29;20450;-58
2022/12/08 03:47:15;;;;;;;34.75;20.00;;;;;;;;;;4934529;29;20099;-58
2022/12/08 03:49:41;;;;;;;33.75;20.10;;;;;;;;;;4934149;29;20130;-58
2022/12/08 03:52:07;;;;;;;32.60;19.10;;;;;;;;;;4934328;29;20115;-58
2022/12/08 03:54:33;;;;;;;28.92;17.85;;;;;;;;;;4934074;29;20038;-64
2022/12/08 03:56:59;;;;;;;29.48;18.08;;;;;;;;;;4933885;29;20031;-58
2022/12/08 03:59:25;;;;;;;31.50;19.08;;;;;;;;;;4933810;29;20035;-64
2022/12/08 04:01:51;;;;;;;30.50;17.67;;;;;;;;;;4934227;29;20036;-60
2022/12/08 04:04:17;;;;;;;29.65;17.73;;;;;;;;;;4934248;29;20079;-63
2022/12/08 04:06:43;;;;;;;36.00;19.55;;;;;;;;;;4934400;29;20055;-57
2022/12/08 04:09:09;;;;;;;30.63;18.50;;;;;;;;;;4933981;29;20062;-59
2022/12/08 04:11:35;;;;;;;32.55;18.67;;;;;;;;;;4933935;29;20035;-60
2022/12/08 04:14:01;;;;;;;31.65;17.77;;;;;;;;;;4934177;29;20075;-58
2022/12/08 04:16:27;;;;;;;32.65;19.20;;;;;;;;;;4934060;29;20039;-57
2022/12/08 04:18:54;;;;;;;33.97;19.50;;;;;;;;;;4934125;29;20059;-58
2022/12/08 04:21:20;;;;;;;35.45;20.33;;;;;;;;;;4934161;29;20075;-58
2022/12/08 04:23:46;;;;;;;34.67;20.70;;;;;;;;;;4934086;29;20051;-58
2022/12/08 04:26:12;;;;;;;37.55;21.65;;;;;;;;;;4933995;29;20534;-57
2022/12/08 04:28:38;;;;;;;35.53;21.35;;;;;;;;;;4933506;29;20059;-66
2022/12/08 04:31:05;;;;;;;37.58;22.02;;;;;;;;;;4933246;29;20043;-60
2022/12/08 04:33:31;;;;;;;36.13;22.48;;;;;;;;;;4933612;29;20027;-59
2022/12/08 04:35:57;;;;;;;37.63;21.63;;;;;;;;;;4933441;29;20032;-58
2022/12/08 04:38:23;;;;;;;38.50;21.63;;;;;;;;;;4933412;29;20027;-65
2022/12/08 04:40:49;;;;;;;38.67;22.23;;;;;;;;;;4933338;29;20050;-57
2022/12/08 04:43:15;;;;;;;38.33;20.98;;;;;;;;;;4933596;29;20475;-64
2022/12/08 04:45:42;;;;;;;40.10;23.10;;;;;;;;;;4933976;29;20031;-63
2022/12/08 04:48:08;;;;;;;41.13;24.13;;;;;;;;;;4933565;29;20028;-57
2022/12/08 04:50:35;;;;;;;40.83;23.40;;;;;;;;;;4933670;29;20384;-57
2022/12/08 04:53:01;;;;;;;45.38;24.42;;;;;;;;;;4933312;29;20472;-58
2022/12/08 04:55:27;;;;;;;39.42;23.67;;;;;;;;;;4933723;29;20032;-58
2022/12/08 04:57:53;;;;;;;44.22;23.75;;;;;;;;;;4933215;29;20052;-57
2022/12/08 05:00:19;;;;;;;41.72;24.83;;;;;;;;;;4933555;29;20042;-57
2022/12/08 05:02:45;;;;;;;43.35;25.70;;;;;;;;;;4933822;29;20023;-57
2022/12/08 05:05:11;;;;;;;44.45;26.77;;;;;;;;;;4933596;29;20028;-57
2022/12/08 05:07:37;;;;;;;45.15;25.98;;;;;;;;;;4933319;29;20019;-58
2022/12/08 05:10:03;;;;;;;47.90;26.90;;;;;;;;;;4933541;29;20169;-58
2022/12/08 05:12:29;;;;;;;46.70;26.88;;;;;;;;;;4933106;29;20031;-60
2022/12/08 05:14:55;;;;;;;48.50;27.08;;;;;;;;;;4933620;29;20020;-60
2022/12/08 05:17:21;;;;;;;46.47;28.00;;;;;;;;;;4933378;29;20106;-64
2022/12/08 05:19:47;;;;;;;54.67;30.80;;;;;;;;;;4933626;29;20364;-58
2022/12/08 05:22:13;;;;;;;91.13;48.15;;;;;;;;;;4933586;29;20067;-58
2022/12/08 05:24:39;;;;;;;123.95;61.28;;;;;;;;;;4933230;29;20062;-57
2022/12/08 05:27:06;;;;;;;105.70;57.55;;;;;;;;;;4933329;29;20028;-62
2022/12/08 05:29:32;;;;;;;72.50;38.10;;;;;;;;;;4932984;29;20067;-57
2022/12/08 05:31:58;;;;;;;55.10;30.42;;;;;;;;;;4933185;29;20519;-58
2022/12/08 05:34:24;;;;;;;68.85;38.58;;;;;;;;;;4932951;29;20070;-59
2022/12/08 05:36:50;;;;;;;73.53;38.17;;;;;;;;;;4932967;29;20035;-57
2022/12/08 05:39:16;;;;;;;72.13;38.00;;;;;;;;;;4932968;29;20028;-58
2022/12/08 05:41:42;;;;;;;67.57;37.28;;;;;;;;;;4933278;29;20043;-58
2022/12/08 05:44:08;;;;;;;56.03;30.60;;;;;;;;;;4933320;29;20479;-59
2022/12/08 05:46:35;;;;;;;53.22;30.67;;;;;;;;;;4933297;29;20118;-57
2022/12/08 05:49:02;;;;;;;54.30;29.58;;;;;;;;;;4935181;29;20163;-58
2022/12/08 05:51:28;;;;;;;52.00;27.30;;;;;;;;;;4936578;29;20032;-57
2022/12/08 05:53:54;;;;;;;56.90;29.67;;;;;;;;;;4936466;29;20027;-57
2022/12/08 05:56:20;;;;;;;54.40;28.83;;;;;;;;;;4936399;29;20027;-57
2022/12/08 05:58:47;;;;;;;54.92;28.27;;;;;;;;;;4935630;29;20055;-60
2022/12/08 06:01:23;;;;;;;58.00;29.38;;;;;;;;;;4936114;29;20051;-60
2022/12/08 06:03:50;;;;;;;57.90;29.63;;;;;;;;;;4936549;29;20089;-58
2022/12/08 06:06:16;;;;;;;53.63;28.58;;;;;;;;;;4936239;29;20030;-58
2022/12/08 06:14:20;;;;;;;56.40;28.38;;;;;;;;;;5103727;23;20058;-57
2022/12/08 06:16:46;;;;;;;50.58;26.83;;;;;;;;;;4974115;28;20042;-57
2022/12/08 06:19:12;;;;;;;48.30;24.50;;;;;;;;;;4971118;28;20031;-58
2022/12/08 06:21:38;;;;;;;46.80;25.75;;;;;;;;;;4964392;28;20027;-58
2022/12/08 06:24:04;;;;;;;45.63;24.48;;;;;;;;;;4963499;28;20098;-58
2022/12/08 06:26:30;;;;;;;44.97;24.65;;;;;;;;;;4962605;28;20030;-61
2022/12/08 06:28:59;;;;;;;45.78;26.52;;;;;;;;;;4964369;28;20444;-57
2022/12/08 06:31:26;;;;;;;46.10;26.70;;;;;;;;;;4963474;28;20055;-59
2022/12/08 06:33:52;;;;;;;53.63;29.08;;;;;;;;;;4962349;28;20023;-60
2022/12/08 06:36:20;;;;;;;54.88;29.30;;;;;;;;;;4964132;28;20098;-60
2022/12/08 06:38:46;;;;;;;50.75;29.17;;;;;;;;;;4963213;28;20099;-59
2022/12/08 06:41:13;;;;;;;59.60;32.78;;;;;;;;;;4961621;28;20403;-59
2022/12/08 06:43:39;;;;;;;53.83;30.77;;;;;;;;;;4970504;28;20046;-58
2022/12/08 06:46:08;;;;;;;55.95;30.50;;;;;;;;;;4973796;28;20550;-64
2022/12/08 06:48:34;;;;;;;56.10;32.22;;;;;;;;;;4973583;28;20076;-59
2022/12/08 06:51:10;;;;;;;61.88;31.48;;;;;;;;;;4973499;28;20430;-60
2022/12/08 06:53:36;;;;;;;65.10;33.17;;;;;;;;;;4970023;28;20483;-57
2022/12/08 06:56:02;;;;;;;70.18;36.25;;;;;;;;;;4961965;28;20035;-59
2022/12/08 06:58:28;;;;;;;69.85;37.83;;;;;;;;;;4963346;28;20470;-57
2022/12/08 07:00:55;;;;;;;74.80;40.65;;;;;;;;;;4961257;28;20042;-57
2022/12/08 07:03:21;;;;;;;73.68;40.60;;;;;;;;;;4963593;28;20015;-59
2022/12/08 07:05:47;;;;;;;82.03;43.20;;;;;;;;;;4961064;28;20023;-56
2022/12/08 07:08:13;;;;;;;71.93;39.17;;;;;;;;;;4962806;28;20775;-62
2022/12/08 07:10:39;;;;;;;78.60;42.17;;;;;;;;;;4962573;28;20053;-62
2022/12/08 07:13:05;;;;;;;71.00;38.33;;;;;;;;;;4946028;29;20040;-58
2022/12/08 07:15:31;;;;;;;58.75;33.35;;;;;;;;;;4934622;29;20499;-58
2022/12/08 07:17:57;;;;;;;52.80;31.25;;;;;;;;;;4934836;29;20034;-57
2022/12/08 07:20:23;;;;;;;52.42;31.17;;;;;;;;;;4934487;29;20074;-57
2022/12/08 07:22:50;;;;;;;57.05;31.10;;;;;;;;;;4935003;29;20024;-57
2022/12/08 07:25:17;;;;;;;53.80;31.98;;;;;;;;;;4934468;29;20051;-57
2022/12/08 07:27:43;;;;;;;50.55;29.67;;;;;;;;;;4934515;29;20439;-58
2022/12/08 07:30:09;;;;;;;54.47;30.50;;;;;;;;;;4934584;29;20028;-58
2022/12/08 07:32:36;;;;;;;50.47;28.92;;;;;;;;;;4934373;29;20031;-57
2022/12/08 07:35:02;;;;;;;54.95;29.95;;;;;;;;;;4916762;29;20493;-57
2022/12/08 07:37:28;;;;;;;48.10;27.50;;;;;;;;;;4934454;29;20024;-57
2022/12/08 07:39:54;;;;;;;55.33;30.77;;;;;;;;;;4933740;29;20032;-62
2022/12/08 07:42:21;;;;;;;61.97;34.53;;;;;;;;;;4933891;29;20031;-62
2022/12/08 07:44:47;;;;;;;68.50;36.85;;;;;;;;;;4934229;29;20365;-57
2022/12/08 07:47:13;;;;;;;64.43;36.95;;;;;;;;;;4934354;29;20078;-57
2022/12/08 07:49:39;;;;;;;68.13;36.25;;;;;;;;;;4934541;29;20023;-57
2022/12/08 07:52:05;;;;;;;64.05;35.20;;;;;;;;;;4934557;29;20027;-57
2022/12/08 07:54:31;;;;;;;55.50;31.58;;;;;;;;;;4934191;29;20388;-58
2022/12/08 07:56:57;;;;;;;41.20;24.83;;;;;;;;;;4934269;29;20475;-61
2022/12/08 07:59:23;;;;;;;43.70;24.35;;;;;;;;;;4934008;29;20020;-58
2022/12/08 08:01:50;;;;;;;46.10;23.77;;;;;;;;;;4933998;29;20141;-58
2022/12/08 08:04:16;;;;;;;42.60;22.67;;;;;;;;;;4933765;29;20028;-58
2022/12/08 08:06:42;;;;;;;41.10;21.60;;;;;;;;;;4933775;29;20865;-58
2022/12/08 08:09:09;;;;;;;37.55;20.33;;;;;;;;;;4933657;29;20066;-60
2022/12/08 08:11:35;;;;;;;35.25;20.70;;;;;;;;;;4933558;29;20058;-57
2022/12/08 08:14:01;;;;;;;36.85;20.73;;;;;;;;;;4933545;29;20052;-58
2022/12/08 08:16:27;;;;;;;47.67;26.25;;;;;;;;;;4917051;29;20031;-58
2022/12/08 08:18:53;;;;;;;58.75;31.20;;;;;;;;;;4933583;29;20464;-58
2022/12/08 08:21:20;;;;;;;58.05;30.98;;;;;;;;;;4933014;29;20035;-58
2022/12/08 08:23:46;;;;;;;54.47;30.00;;;;;;;;;;4933658;29;20032;-58
2022/12/08 08:26:12;;;;;;;51.00;28.38;;;;;;;;;;4933570;29;20034;-58
2022/12/08 08:28:38;;;;;;;47.20;26.73;;;;;;;;;;4933450;29;20034;-58
2022/12/08 08:31:05;;;;;;;50.97;27.65;;;;;;;;;;4933982;29;20035;-58
2022/12/08 08:33:31;;;;;;;56.70;30.33;;;;;;;;;;4933806;29;20128;-59
2022/12/08 08:35:57;;;;;;;58.47;30.88;;;;;;;;;;4935587;29;20118;-61
2022/12/08 08:38:23;;;;;;;54.60;30.58;;;;;;;;;;4933694;29;20063;-61
2022/12/08 08:40:50;;;;;;;58.42;32.25;;;;;;;;;;4933748;29;20032;-63
2022/12/08 08:43:28;;;;;;;61.38;34.45;;;;;;;;;;4933331;29;20106;-61
2022/12/08 08:46:00;;;;;;;59.08;32.55;;;;;;;;;;4934114;29;20491;-58
2022/12/08 08:48:27;;;;;;;52.40;31.10;;;;;;;;;;4933330;29;20074;-59
2022/12/08 08:50:53;;;;;;;48.42;29.55;;;;;;;;;;4933523;29;20024;-58
2022/12/08 08:53:20;;;;;;;52.17;30.00;;;;;;;;;;4933525;29;20028;-58
2022/12/08 08:55:46;;;;;;;51.28;28.23;;;;;;;;;;4933400;29;20031;-58
2022/12/08 08:58:12;;;;;;;51.00;28.98;;;;;;;;;;4933494;29;20032;-61
2022/12/08 09:00:38;;;;;;;46.95;26.83;;;;;;;;;;4942156;29;20076;-58
2022/12/08 09:03:04;;;;;;;46.55;28.45;;;;;;;;;;4940410;29;20031;-58
2022/12/08 09:05:30;;;;;;;48.92;28.63;;;;;;;;;;4942250;29;20039;-62
2022/12/08 09:07:56;;;;;;;53.72;28.00;;;;;;;;;;4941814;29;20034;-58
2022/12/08 09:10:22;;;;;;;55.15;32.42;;;;;;;;;;4939906;29;20053;-58
2022/12/08 09:12:48;;;;;;;59.05;32.45;;;;;;;;;;4939917;28;20043;-58
2022/12/08 09:15:14;;;;;;;54.08;32.03;;;;;;;;;;4942746;29;20035;-59
2022/12/08 09:17:40;;;;;;;55.47;32.85;;;;;;;;;;4941357;29;20023;-60
2022/12/08 09:20:07;;;;;;;58.05;34.08;;;;;;;;;;4922827;29;20412;-58
2022/12/08 09:22:33;;;;;;;64.90;36.60;;;;;;;;;;4942638;29;20094;-61
2022/12/08 09:24:59;;;;;;;75.70;40.25;;;;;;;;;;4944555;29;20079;-59
2022/12/08 09:27:25;;;;;;;71.07;38.95;;;;;;;;;;4944956;29;20023;-59
2022/12/08 09:29:51;;;;;;;75.63;40.30;;;;;;;;;;4945923;29;20024;-58
2022/12/08 09:32:17;;;;;;;74.95;41.20;;;;;;;;;;4946357;29;20035;-59
2022/12/08 09:34:43;;;;;;;82.00;42.60;;;;;;;;;;4952181;29;20032;-58
2022/12/08 09:37:09;;;;;;;74.28;40.30;;;;;;;;;;4944859;29;20015;-59
2022/12/08 09:39:35;;;;;;;80.53;41.47;;;;;;;;;;4944163;29;20027;-59
2022/12/08 09:42:02;;;;;;;83.38;43.80;;;;;;;;;;4945676;29;20069;-58
2022/12/08 09:44:41;;;;;;;82.82;43.63;;;;;;;;;;4950357;29;20019;-58
2022/12/08 09:47:18;;;;;;;77.45;41.90;;;;;;;;;;4954820;29;20027;-58
2022/12/08 09:49:51;;;;;;;73.13;38.58;;;;;;;;;;4954641;29;20034;-58
2022/12/08 09:52:40;;;;;;;73.53;37.78;;;;;;;;;;4951662;29;20510;-58
2022/12/08 09:55:15;;;;;;;72.82;37.90;;;;;;;;;;4870448;29;20041;-58
2022/12/08 09:57:41;;;;;;;55.90;30.33;;;;;;;;;;4874314;29;20033;-58
2022/12/08 10:00:10;;;;;;;53.67;28.23;;;;;;;;;;4875916;29;20045;-58
2022/12/08 10:02:37;;;;;;;57.03;29.63;;;;;;;;;;4865449;29;20408;-58
2022/12/08 10:05:03;;;;;;;54.47;29.85;;;;;;;;;;4876622;29;20045;-59
2022/12/08 10:07:31;;;;;;;57.20;30.80;;;;;;;;;;4875846;29;20593;-59
2022/12/08 10:10:04;;;;;;;81.43;38.55;;;;;;;;;;4875988;29;20310;-58
2022/12/08 10:12:36;;;;;;;78.60;39.45;;;;;;;;;;4873729;29;20041;-59
2022/12/08 10:15:20;;;;;;;87.60;42.17;;;;;;;;;;4876655;29;20056;-58
2022/12/08 10:17:48;;;;;;;78.88;39.38;;;;;;;;;;4875137;29;20056;-60
2022/12/08 10:20:25;;;;;;;82.70;40.80;;;;;;;;;;4876478;29;20134;-58
2022/12/08 10:23:06;;;;;;;80.35;40.08;;;;;;;;;;4876635;29;20533;-59
2022/12/08 10:25:41;;;;;;;83.13;40.55;;;;;;;;;;4876395;29;20077;-59
2022/12/08 10:28:08;;;;;;;93.15;46.85;;;;;;;;;;4876960;29;20547;-58
2022/12/08 10:30:34;;;;;;;87.57;42.63;;;;;;;;;;4876819;29;20104;-63
2022/12/08 10:33:00;;;;;;;80.85;39.17;;;;;;;;;;4927561;29;20496;-58
2022/12/08 10:35:41;;;;;;;88.13;42.88;;;;;;;;;;4935187;29;20047;-60
2022/12/08 10:38:15;;;;;;;91.53;43.77;;;;;;;;;;4935371;29;20083;-58
2022/12/08 10:40:43;;;;;;;80.13;38.00;;;;;;;;;;4935302;29;20050;-58
2022/12/08 10:43:13;;;;;;;76.40;38.85;;;;;;;;;;4935000;29;20440;-58
2022/12/08 10:45:40;;;;;;;81.13;40.03;;;;;;;;;;4935386;29;20039;-59
2022/12/08 10:48:15;;;;;;;86.72;42.80;;;;;;;;;;4934355;29;20028;-58
2022/12/08 10:50:41;;;;;;;81.00;38.67;;;;;;;;;;4944106;28;20478;-58
2022/12/08 10:53:07;;;;;;;79.63;39.50;;;;;;;;;;4954545;29;20751;-59
2022/12/08 10:55:43;;;;;;;81.47;39.70;;;;;;;;;;4954464;29;20114;-59
2022/12/08 10:58:25;;;;;;;76.30;38.60;;;;;;;;;;4954216;29;20368;-58
2022/12/08 11:00:52;;;;;;;81.80;38.05;;;;;;;;;;4954166;29;20130;-58
2022/12/08 11:03:27;;;;;;;85.05;38.63;;;;;;;;;;4953870;29;20082;-58
2022/12/08 11:05:56;;;;;;;81.40;39.78;;;;;;;;;;4954193;29;20094;-58
2022/12/08 11:08:22;;;;;;;88.82;40.95;;;;;;;;;;4953964;29;20447;-59
2022/12/08 11:10:48;;;;;;;87.47;41.20;;;;;;;;;;4954029;29;20043;-58
2022/12/08 11:13:28;;;;;;;90.85;40.85;;;;;;;;;;4953272;28;20074;-61
2022/12/08 11:15:55;;;;;;;97.70;44.00;;;;;;;;;;4953474;29;20086;-59
2022/12/08 11:18:28;;;;;;;101.78;46.55;;;;;;;;;;4953692;29;20104;-58
2022/12/08 11:21:13;;;;;;;97.93;46.47;;;;;;;;;;4939808;29;20040;-59
2022/12/08 11:23:41;;;;;;;105.47;46.50;;;;;;;;;;4915103;29;20024;-58
2022/12/08 11:26:13;;;;;;;108.10;46.97;;;;;;;;;;4898227;29;20392;-58
2022/12/08 11:28:39;;;;;;;103.93;45.60;;;;;;;;;;4915373;29;20115;-58
2022/12/08 11:31:34;;;;;;;106.43;45.80;;;;;;;;;;4915075;29;20611;-59
2022/12/08 11:34:01;;;;;;;104.28;46.88;;;;;;;;;;4820343;29;20050;-58
2022/12/08 11:36:29;;;;;;;99.85;45.70;;;;;;;;;;4820284;29;20071;-63
2022/12/08 11:38:59;;;;;;;100.40;46.40;;;;;;;;;;4820000;29;20074;-58
2022/12/08 11:41:30;;;;;;;104.65;46.90;;;;;;;;;;4823675;29;20034;-58
2022/12/08 11:44:15;;;;;;;72.75;32.65;;;;;;;;;;4842403;29;20049;-58
2022/12/08 11:46:48;;;;;;;100.25;46.83;;;;;;;;;;4841430;29;20077;-60
2022/12/08 11:49:14;;;;;;;110.70;48.42;;;;;;;;;;4837859;29;20026;-59
2022/12/08 11:51:50;;;;;;;105.32;47.53;;;;;;;;;;4838205;29;20034;-64
2022/12/08 11:54:25;;;;;;;98.68;46.20;;;;;;;;;;4838137;29;20061;-58
2022/12/08 11:56:56;;;;;;;101.05;47.88;;;;;;;;;;4838298;29;20046;-59
2022/12/08 11:59:30;;;;;;;101.20;47.00;;;;;;;;;;4838006;29;20462;-61
2022/12/08 12:01:58;;;;;;;103.70;46.92;;;;;;;;;;4837903;29;20538;-58
2022/12/08 12:04:26;;;;;;;106.78;50.33;;;;;;;;;;4837665;29;20423;-58
2022/12/08 12:07:11;;;;;;;110.50;50.33;;;;;;;;;;4838033;29;20145;-58
2022/12/08 12:09:56;;;;;;;99.25;46.42;;;;;;;;;;4852364;29;20444;-58
2022/12/08 12:12:22;;;;;;;103.18;48.55;;;;;;;;;;4933809;29;20126;-58
2022/12/08 12:14:50;;;;;;;101.03;47.95;;;;;;;;;;4952934;29;20108;-57
2022/12/08 12:17:23;;;;;;;101.05;47.67;;;;;;;;;;4952547;29;20106;-57
2022/12/08 12:19:49;;;;;;;99.38;46.53;;;;;;;;;;4952556;29;20114;-57
2022/12/08 12:22:17;;;;;;;98.20;47.13;;;;;;;;;;4952281;29;20226;-56
2022/12/08 12:24:44;;;;;;;97.85;46.90;;;;;;;;;;4952672;29;20027;-57
2022/12/08 12:27:13;;;;;;;102.30;48.45;;;;;;;;;;4952862;29;20115;-58
2022/12/08 12:29:45;;;;;;;97.53;46.90;;;;;;;;;;4952640;29;20038;-57
2022/12/08 12:32:11;;;;;;;99.22;47.75;;;;;;;;;;4952615;29;20042;-62
2022/12/08 12:34:55;;;;;;;97.38;47.30;;;;;;;;;;4952705;29;20032;-57
2022/12/08 12:37:23;;;;;;;94.68;46.65;;;;;;;;;;4952745;29;20031;-59
2022/12/08 12:39:52;;;;;;;93.32;46.03;;;;;;;;;;4952512;28;20042;-58
2022/12/08 12:42:37;;;;;;;93.63;45.58;;;;;;;;;;4952610;29;20039;-58
2022/12/08 12:45:12;;;;;;;89.38;44.10;;;;;;;;;;4952655;29;20023;-59
2022/12/08 12:47:46;;;;;;;95.55;47.20;;;;;;;;;;4952671;29;20041;-63
2022/12/08 12:50:13;;;;;;;103.25;48.35;;;;;;;;;;4952661;29;20410;-64
2022/12/08 12:52:40;;;;;;;119.90;57.70;;;;;;;;;;4951677;29;20020;-57
2022/12/08 12:55:09;;;;;;;98.45;48.75;;;;;;;;;;4950946;29;20043;-64
2022/12/08 12:57:36;;;;;;;94.93;46.10;;;;;;;;;;4950260;28;20035;-62
2022/12/08 13:00:02;;;;;;;91.93;45.78;;;;;;;;;;4947182;29;20070;-59
2022/12/08 13:02:30;;;;;;;96.50;47.90;;;;;;;;;;4945901;29;20144;-58
2022/12/08 13:04:59;;;;;;;99.50;49.75;;;;;;;;;;4937265;29;20055;-57
2022/12/08 13:07:27;;;;;;;100.65;51.25;;;;;;;;;;4939892;29;20071;-57
2022/12/08 13:10:10;;;;;;;129.65;63.55;;;;;;;;;;4943862;29;20507;-57
2022/12/08 13:12:36;;;;;;;102.45;49.65;;;;;;;;;;4936069;29;20098;-56
2022/12/08 13:15:04;;;;;;;88.57;45.13;;;;;;;;;;4939662;29;20110;-61
2022/12/08 13:17:32;;;;;;;91.88;45.60;;;;;;;;;;4944157;29;20089;-56
2022/12/08 13:20:00;;;;;;;93.07;44.78;;;;;;;;;;4946420;29;20509;-57
2022/12/08 13:22:44;;;;;;;91.25;46.22;;;;;;;;;;4945088;29;20024;-57
2022/12/08 13:25:29;;;;;;;89.25;45.55;;;;;;;;;;4945618;29;20031;-57
2022/12/08 13:27:55;;;;;;;89.97;45.75;;;;;;;;;;4945634;29;20059;-58
2022/12/08 13:30:41;;;;;;;90.63;45.80;;;;;;;;;;4945295;29;20078;-62
2022/12/08 13:33:10;;;;;;;87.97;43.75;;;;;;;;;;4945302;29;20031;-62
2022/12/08 13:35:40;;;;;;;81.00;42.17;;;;;;;;;;4945348;29;20543;-58
2022/12/08 13:38:06;;;;;;;90.72;45.72;;;;;;;;;;4944136;29;20035;-59
2022/12/08 13:40:34;;;;;;;89.57;44.53;;;;;;;;;;4943685;29;20110;-56
2022/12/08 13:43:13;;;;;;;94.20;47.58;;;;;;;;;;4945648;29;20033;-57
2022/12/08 13:45:40;;;;;;;98.15;50.53;;;;;;;;;;4945185;29;20027;-57
2022/12/08 13:48:10;;;;;;;100.25;50.75;;;;;;;;;;4944350;29;20540;-58
2022/12/08 13:50:44;;;;;;;104.75;52.28;;;;;;;;;;4943430;29;20031;-61
2022/12/08 13:53:10;;;;;;;109.93;53.83;;;;;;;;;;4945765;29;20465;-56
2022/12/08 13:55:48;;;;;;;110.20;55.42;;;;;;;;;;4938800;29;20027;-57
2022/12/08 13:58:18;;;;;;;109.63;56.30;;;;;;;;;;4942221;29;20020;-57
2022/12/08 14:00:53;;;;;;;113.88;56.55;;;;;;;;;;4935671;29;20507;-57
2022/12/08 14:03:19;;;;;;;109.07;56.63;;;;;;;;;;4946062;29;20034;-58
2022/12/08 14:05:45;;;;;;;111.72;55.72;;;;;;;;;;4954708;29;20031;-58
2022/12/08 14:08:28;;;;;;;105.72;53.53;;;;;;;;;;4939445;29;20035;-59
2022/12/08 14:10:58;;;;;;;112.03;55.80;;;;;;;;;;4951662;29;20031;-58
2022/12/08 14:13:24;;;;;;;111.15;53.28;;;;;;;;;;4942293;29;20043;-57
2022/12/08 14:15:50;;;;;;;107.45;54.78;;;;;;;;;;4935573;29;20031;-57
2022/12/08 14:18:29;;;;;;;117.78;59.53;;;;;;;;;;4935196;29;20107;-57
2022/12/08 14:21:13;;;;;;;108.00;56.88;;;;;;;;;;4935198;29;20563;-60
2022/12/08 14:23:43;;;;;;;111.85;56.90;;;;;;;;;;4935623;29;20424;-62
2022/12/08 14:26:10;;;;;;;107.32;54.67;;;;;;;;;;4935358;29;20031;-56
2022/12/08 14:28:36;;;;;;;107.15;55.63;;;;;;;;;;4935265;29;20027;-58
2022/12/08 14:31:03;;;;;;;112.28;58.00;;;;;;;;;;4954346;29;20079;-59
2022/12/08 14:33:30;;;;;;;99.45;52.38;;;;;;;;;;4953374;29;20020;-58
2022/12/08 14:35:57;;;;;;;95.53;52.88;;;;;;;;;;4937840;29;20040;-57